createdAt,value
2022-10-29T00:00:13.482Z,2.87
2022-10-29T00:03:00.464Z,2.53
2022-10-29T00:05:57.025Z,2.60
2022-10-29T00:08:44.055Z,2.27
2022-10-29T00:11:31.472Z,2.87
2022-10-29T00:14:18.398Z,2.70
2022-10-29T00:17:06.813Z,2.60
2022-10-29T00:19:53.608Z,2.50
2022-10-29T00:22:42.632Z,2.87
2022-10-29T00:25:29.152Z,2.50
2022-10-29T00:28:15.830Z,3.30
2022-10-29T00:31:05.282Z,2.20
2022-10-29T00:33:54.767Z,2.60
2022-10-29T00:36:41.797Z,2.57
2022-10-29T00:39:29.583Z,2.17
2022-10-29T00:42:17.577Z,2.60
2022-10-29T00:45:04.831Z,2.50
2022-10-29T00:47:54.151Z,2.57
2022-10-29T00:50:42.607Z,2.27
2022-10-29T00:53:34.158Z,2.57
2022-10-29T00:56:23.083Z,2.03
2022-10-29T00:59:11.245Z,2.53
2022-10-29T01:01:58.037Z,2.40
2022-10-29T01:04:45.878Z,3.03
2022-10-29T01:07:37.276Z,2.83
2022-10-29T01:10:33.151Z,1.97
2022-10-29T01:13:43.037Z,2.20
2022-10-29T01:16:40.477Z,2.13
2022-10-29T01:19:53.566Z,2.37
2022-10-29T01:22:46.808Z,2.37
2022-10-29T01:26:06.293Z,2.67
2022-10-29T01:29:11.703Z,2.43
2022-10-29T01:32:05.475Z,2.33
2022-10-29T01:34:59.478Z,2.50
2022-10-29T01:37:55.118Z,2.80
2022-10-29T01:40:49.664Z,2.47
2022-10-29T01:43:40.976Z,2.70
2022-10-29T01:46:35.613Z,2.53
2022-10-29T01:49:28.622Z,2.27
2022-10-29T01:52:17.951Z,2.83
2022-10-29T01:55:05.082Z,2.33
2022-10-29T01:57:51.918Z,2.03
2022-10-29T02:00:49.300Z,2.57
2022-10-29T02:03:44.390Z,2.60
2022-10-29T02:06:43.399Z,2.93
2022-10-29T02:09:35.199Z,1.90
2022-10-29T02:12:26.669Z,2.13
2022-10-29T02:15:17.952Z,2.10
2022-10-29T02:18:07.821Z,2.43
2022-10-29T02:20:54.903Z,2.60
2022-10-29T02:23:43.116Z,2.47
2022-10-29T02:26:29.994Z,2.50
2022-10-29T02:29:17.024Z,2.40
2022-10-29T02:32:03.629Z,2.40
2022-10-29T02:34:50.263Z,2.33
2022-10-29T02:37:37.780Z,2.80
2022-10-29T02:40:26.178Z,2.20
2022-10-29T02:43:13.202Z,2.23
2022-10-29T02:46:17.066Z,2.70
2022-10-29T02:49:03.897Z,2.07
2022-10-29T02:51:50.529Z,2.43
2022-10-29T02:54:39.617Z,2.43
2022-10-29T02:57:28.114Z,2.53
2022-10-29T03:00:16.233Z,2.00
2022-10-29T03:03:03.305Z,2.23
2022-10-29T03:05:50.709Z,1.90
2022-10-29T03:08:38.117Z,2.80
2022-10-29T03:11:24.912Z,2.40
2022-10-29T03:14:13.114Z,2.47
2022-10-29T03:17:00.208Z,2.57
2022-10-29T03:19:47.081Z,2.53
2022-10-29T03:22:33.999Z,2.20
2022-10-29T03:25:20.498Z,2.03
2022-10-29T03:28:07.786Z,2.17
2022-10-29T03:30:56.927Z,2.50
2022-10-29T03:33:43.772Z,2.13
2022-10-29T03:36:30.753Z,3.00
2022-10-29T03:39:17.956Z,2.17
2022-10-29T03:42:04.936Z,2.70
2022-10-29T03:44:51.952Z,2.17
2022-10-29T03:47:40.291Z,1.87
2022-10-29T03:50:26.944Z,2.07
2022-10-29T03:53:14.051Z,2.70
2022-10-29T03:56:00.809Z,2.23
2022-10-29T03:58:47.734Z,2.53
2022-10-29T04:01:34.989Z,2.60
2022-10-29T04:04:23.628Z,2.07
2022-10-29T04:07:10.234Z,2.77
2022-10-29T04:09:57.062Z,2.27
2022-10-29T04:12:46.953Z,2.43
2022-10-29T04:15:33.883Z,2.73
2022-10-29T04:18:20.461Z,2.50
2022-10-29T04:30:29.972Z,1.97
2022-10-29T04:33:17.148Z,2.30
2022-10-29T04:36:04.015Z,2.33
2022-10-29T04:38:52.978Z,2.87
2022-10-29T04:41:40.041Z,2.70
2022-10-29T04:44:26.817Z,2.40
2022-10-29T04:47:14.015Z,2.30
2022-10-29T04:50:01.760Z,2.13
2022-10-29T04:52:48.717Z,2.60
2022-10-29T04:55:39.432Z,2.43
2022-10-29T04:58:26.127Z,2.33
2022-10-29T05:01:13.223Z,2.07
2022-10-29T05:04:00.392Z,2.23
2022-10-29T05:06:47.137Z,1.87
2022-10-29T05:09:34.083Z,1.97
2022-10-29T05:12:23.563Z,3.10
2022-10-29T05:15:11.720Z,2.33
2022-10-29T05:17:58.896Z,2.00
2022-10-29T05:20:46.390Z,2.03
2022-10-29T05:23:33.603Z,2.20
2022-10-29T05:26:20.504Z,3.03
2022-10-29T05:29:08.804Z,2.20
2022-10-29T05:31:55.716Z,2.07
2022-10-29T05:34:44.487Z,2.20
2022-10-29T05:37:31.556Z,2.50
2022-10-29T05:40:18.294Z,2.27
2022-10-29T05:43:05.677Z,2.60
2022-10-29T05:45:54.233Z,2.10
2022-10-29T05:48:41.170Z,1.93
2022-10-29T05:51:28.139Z,2.70
2022-10-29T05:54:14.936Z,2.73
2022-10-29T05:57:01.962Z,2.17
2022-10-29T05:59:51.553Z,3.17
2022-10-29T06:02:39.939Z,2.77
2022-10-29T06:05:27.206Z,2.97
2022-10-29T06:08:13.953Z,3.00
2022-10-29T06:11:03.100Z,3.50
2022-10-29T06:13:50.127Z,2.63
2022-10-29T06:16:37.050Z,2.20
2022-10-29T06:19:25.133Z,2.67
2022-10-29T06:22:12.271Z,2.47
2022-10-29T06:24:58.804Z,2.60
2022-10-29T06:27:45.818Z,3.00
2022-10-29T06:30:34.681Z,2.87
2022-10-29T06:33:24.224Z,2.10
2022-10-29T06:36:12.732Z,2.67
2022-10-29T06:38:59.385Z,2.67
2022-10-29T06:41:46.376Z,2.30
2022-10-29T06:44:33.376Z,2.47
2022-10-29T06:47:20.436Z,2.67
2022-10-29T06:50:26.829Z,2.80
2022-10-29T06:53:16.688Z,2.50
2022-10-29T06:56:03.344Z,2.37
2022-10-29T06:58:50.157Z,2.60
2022-10-29T07:01:37.281Z,2.40
2022-10-29T07:04:24.101Z,2.53
2022-10-29T07:07:11.136Z,2.77
2022-10-29T07:09:59.328Z,2.80
2022-10-29T07:12:46.339Z,2.53
2022-10-29T07:15:33.514Z,3.23
2022-10-29T07:18:20.736Z,2.93
2022-10-29T07:21:07.824Z,2.10
2022-10-29T07:23:54.868Z,2.57
2022-10-29T07:26:42.860Z,2.63
2022-10-29T07:29:29.476Z,2.47
2022-10-29T07:32:16.565Z,2.40
2022-10-29T07:35:03.839Z,2.33
2022-10-29T07:37:50.449Z,2.77
2022-10-29T07:40:37.877Z,2.50
2022-10-29T07:43:25.951Z,2.60
2022-10-29T07:46:13.113Z,2.40
2022-10-29T07:49:00.057Z,1.90
2022-10-29T07:51:47.057Z,1.97
2022-10-29T07:54:34.391Z,2.00
2022-10-29T07:57:22.425Z,2.25
2022-10-29T08:00:13.118Z,2.55
2022-10-29T08:03:00.014Z,2.20
2022-10-29T08:05:53.711Z,1.88
2022-10-29T08:08:43.606Z,1.90
2022-10-29T08:11:32.334Z,1.85
2022-10-29T08:14:22.804Z,2.88
2022-10-29T08:17:10.959Z,2.42
2022-10-29T08:19:57.602Z,1.80
2022-10-29T08:22:44.249Z,1.70
2022-10-29T08:25:31.386Z,1.77
2022-10-29T08:28:19.027Z,2.20
2022-10-29T08:31:06.889Z,2.20
2022-10-29T08:33:55.328Z,2.20
2022-10-29T08:36:43.096Z,2.30
2022-10-29T08:39:29.757Z,2.53
2022-10-29T08:42:29.667Z,2.30
2022-10-29T08:45:25.442Z,1.98
2022-10-29T08:48:31.443Z,2.47
2022-10-29T08:51:24.981Z,2.22
2022-10-29T08:54:32.117Z,2.08
2022-10-29T08:57:22.784Z,2.22
2022-10-29T09:00:16.586Z,2.35
2022-10-29T09:03:03.736Z,2.60
2022-10-29T09:05:57.483Z,2.05
2022-10-29T09:09:04.830Z,2.40
2022-10-29T09:12:07.184Z,2.63
2022-10-29T09:15:20.243Z,2.45
2022-10-29T09:18:23.871Z,2.40
2022-10-29T09:21:22.347Z,2.42
2022-10-29T09:24:16.265Z,2.65
2022-10-29T09:27:12.963Z,2.35
2022-10-29T09:30:07.320Z,2.70
2022-10-29T09:32:59.985Z,2.60
2022-10-29T09:35:48.833Z,2.15
2022-10-29T09:38:41.982Z,2.45
2022-10-29T09:41:34.916Z,2.88
2022-10-29T09:44:25.067Z,2.75
2022-10-29T09:47:21.897Z,2.42
2022-10-29T09:50:17.490Z,2.50
2022-10-29T09:53:04.766Z,2.10
2022-10-29T09:55:53.900Z,2.15
2022-10-29T09:58:53.339Z,2.60
2022-10-29T10:01:41.485Z,3.08
2022-10-29T10:04:33.572Z,2.47
2022-10-29T10:07:20.777Z,2.83
2022-10-29T10:10:09.504Z,2.58
2022-10-29T10:13:04.186Z,2.83
2022-10-29T10:15:54.832Z,3.05
2022-10-29T10:21:33.188Z,2.90
2022-10-29T10:24:31.952Z,2.97
2022-10-29T10:27:32.013Z,2.78
2022-10-29T10:30:23.037Z,2.50
2022-10-29T10:33:25.124Z,2.42
2022-10-29T10:36:12.456Z,2.22
2022-10-29T10:39:01.202Z,2.60
2022-10-29T10:41:50.714Z,2.20
2022-10-29T10:44:45.902Z,2.20
2022-10-29T10:47:36.618Z,2.22
2022-10-29T10:50:28.966Z,3.08
2022-10-29T10:53:21.692Z,2.72
2022-10-29T10:56:18.678Z,2.05
2022-10-29T10:59:11.409Z,2.33
2022-10-29T11:02:03.011Z,2.58
2022-10-29T11:04:56.985Z,2.38
2022-10-29T11:07:52.147Z,2.35
2022-10-29T11:10:44.527Z,2.22
2022-10-29T11:13:34.068Z,2.13
2022-10-29T11:16:28.044Z,2.15
2022-10-29T11:19:22.115Z,2.42
2022-10-29T11:22:20.292Z,2.33
2022-10-29T11:25:18.177Z,2.08
2022-10-29T11:28:10.832Z,2.47
2022-10-29T11:31:03.931Z,2.95
2022-10-29T11:33:59.816Z,2.28
2022-10-29T11:36:53.382Z,2.63
2022-10-29T11:39:47.603Z,2.50
2022-10-29T11:42:36.311Z,1.95
2022-10-29T11:45:34.850Z,2.30
2022-10-29T11:48:34.340Z,2.15
2022-10-29T11:51:33.217Z,2.30
2022-10-29T11:54:35.881Z,2.28
2022-10-29T11:57:32.185Z,1.88
2022-10-29T12:00:22.073Z,2.13
2022-10-29T12:03:25.608Z,1.80
2022-10-29T12:06:18.142Z,2.50
2022-10-29T12:09:29.751Z,2.30
2022-10-29T12:12:23.757Z,1.65
2022-10-29T12:15:19.838Z,1.95
2022-10-29T12:18:18.587Z,2.08
2022-10-29T12:21:12.255Z,1.90
2022-10-29T12:24:16.439Z,1.80
2022-10-29T12:27:10.400Z,1.85
2022-10-29T12:30:02.657Z,1.80
2022-10-29T12:32:59.134Z,1.95
2022-10-29T12:35:55.495Z,1.83
2022-10-29T12:38:44.118Z,1.90
2022-10-29T12:41:37.553Z,1.80
2022-10-29T12:44:29.761Z,1.70
2022-10-29T12:47:25.094Z,1.60
2022-10-29T12:50:26.756Z,2.45
2022-10-29T12:53:26.663Z,1.63
2022-10-29T12:56:16.419Z,2.40
2022-10-29T12:59:35.210Z,1.73
2022-10-29T13:02:28.273Z,1.60
2022-10-29T13:05:37.992Z,2.20
2022-10-29T13:08:39.473Z,1.80
2022-10-29T13:11:43.116Z,1.88
2022-10-29T13:14:36.849Z,1.75
2022-10-29T13:17:32.931Z,2.03
2022-10-29T13:20:27.955Z,2.00
2022-10-29T13:23:34.950Z,2.10
2022-10-29T13:26:58.113Z,2.03
2022-10-29T13:29:51.639Z,1.77
2022-10-29T13:32:39.921Z,1.52
2022-10-29T13:35:43.066Z,1.90
2022-10-29T13:38:57.692Z,2.40
2022-10-29T13:41:54.680Z,1.58
2022-10-29T13:44:41.198Z,1.55
2022-10-29T13:47:30.518Z,1.90
2022-10-29T13:50:19.197Z,1.52
2022-10-29T13:53:13.360Z,2.05
2022-10-29T13:56:01.883Z,1.75
2022-10-29T13:58:51.109Z,1.73
2022-10-29T14:01:39.076Z,1.98
2022-10-29T14:04:31.750Z,1.80
2022-10-29T14:07:22.896Z,1.85
2022-10-29T14:10:19.375Z,1.40
2022-10-29T14:13:19.293Z,2.05
2022-10-29T14:16:12.549Z,1.60
2022-10-29T14:19:13.173Z,1.88
2022-10-29T14:22:01.537Z,1.80
2022-10-29T14:24:48.285Z,1.98
2022-10-29T14:27:35.378Z,1.48
2022-10-29T14:30:22.736Z,2.03
2022-10-29T14:33:23.582Z,1.92
2022-10-29T14:36:17.788Z,2.00
2022-10-29T14:39:12.769Z,2.22
2022-10-29T14:41:59.784Z,1.88
2022-10-29T14:44:52.104Z,1.70
2022-10-29T14:47:39.429Z,1.50
2022-10-29T14:50:28.245Z,1.70
2022-10-29T14:53:31.143Z,1.95
2022-10-29T14:56:21.850Z,1.70
2022-10-29T14:59:19.626Z,1.90
2022-10-29T15:05:27.509Z,1.58
2022-10-29T15:08:19.048Z,2.08
2022-10-29T15:11:06.455Z,1.83
2022-10-29T15:13:54.643Z,2.08
2022-10-29T15:16:42.534Z,1.75
2022-10-29T15:19:29.642Z,2.00
2022-10-29T15:22:22.833Z,2.03
2022-10-29T15:25:18.344Z,1.83
2022-10-29T15:28:10.246Z,1.83
2022-10-29T15:31:02.140Z,1.55
2022-10-29T15:33:51.735Z,1.63
2022-10-29T15:36:56.175Z,1.92
2022-10-29T15:40:03.004Z,2.40
2022-10-29T15:42:50.517Z,2.25
2022-10-29T15:45:37.254Z,2.08
2022-10-29T15:48:38.509Z,2.08
2022-10-29T15:51:27.877Z,2.00
2022-10-29T15:54:15.336Z,3.42
2022-10-29T15:57:02.238Z,2.42
2022-10-29T15:59:49.376Z,3.33
2022-10-29T16:02:36.242Z,3.15
2022-10-29T16:05:24.899Z,2.40
2022-10-29T16:08:22.088Z,2.00
2022-10-29T16:11:13.787Z,2.20
2022-10-29T16:14:02.998Z,2.63
2022-10-29T16:16:49.876Z,2.25
2022-10-29T16:19:36.748Z,2.25
2022-10-29T16:22:29.568Z,2.20
2022-10-29T16:25:24.358Z,3.33
2022-10-29T16:28:11.155Z,1.95
2022-10-29T16:31:00.799Z,3.08
2022-10-29T16:33:47.933Z,2.42
2022-10-29T16:36:34.566Z,3.00
2022-10-29T16:39:22.842Z,2.13
2022-10-29T16:42:20.933Z,2.63
2022-10-29T16:45:10.111Z,2.97
2022-10-29T16:47:57.326Z,2.33
2022-10-29T16:50:44.544Z,3.35
2022-10-29T16:53:31.452Z,4.13
2022-10-29T16:56:19.882Z,2.50
2022-10-29T16:59:07.141Z,3.50
2022-10-29T17:01:53.936Z,3.35
2022-10-29T17:04:40.550Z,2.25
2022-10-29T17:07:27.571Z,2.75
2022-10-29T17:10:14.516Z,4.75
2022-10-29T17:13:02.672Z,3.50
2022-10-29T17:15:49.384Z,2.90
2022-10-29T17:18:36.108Z,2.72
2022-10-29T17:21:22.678Z,3.07
2022-10-29T17:24:09.666Z,3.92
2022-10-29T17:26:56.832Z,5.55
2022-10-29T17:29:44.891Z,4.03
2022-10-29T17:32:36.459Z,3.20
2022-10-29T17:35:24.070Z,4.00
2022-10-29T17:38:10.897Z,5.00
2022-10-29T17:40:57.681Z,4.20
2022-10-29T17:43:44.643Z,5.00
2022-10-29T17:46:33.133Z,5.00
2022-10-29T17:49:20.004Z,5.53
2022-10-29T17:52:07.572Z,5.27
2022-10-29T17:54:54.218Z,6.23
2022-10-29T17:57:41.352Z,6.33
2022-10-29T18:00:28.458Z,7.00
2022-10-29T18:03:16.350Z,7.30
2022-10-29T18:06:04.369Z,7.10
2022-10-29T18:08:51.298Z,6.07
2022-10-29T18:11:37.896Z,6.50
2022-10-29T18:14:24.819Z,5.30
2022-10-29T18:17:12.037Z,5.10
2022-10-29T18:20:00.490Z,4.57
2022-10-29T18:22:51.823Z,4.93
2022-10-29T18:25:40.642Z,4.07
2022-10-29T18:28:27.638Z,4.87
2022-10-29T18:31:14.515Z,5.07
2022-10-29T18:34:04.785Z,6.83
2022-10-29T18:36:52.703Z,6.20
2022-10-29T18:39:39.446Z,6.90
2022-10-29T18:42:26.572Z,7.37
2022-10-29T18:45:13.062Z,6.70
2022-10-29T18:48:00.601Z,6.03
2022-10-29T18:50:48.133Z,5.57
2022-10-29T18:53:37.653Z,3.90
2022-10-29T18:56:25.210Z,3.70
2022-10-29T18:59:12.830Z,3.57
2022-10-29T19:01:59.553Z,4.07
2022-10-29T19:04:46.956Z,4.00
2022-10-29T19:07:33.502Z,4.27
2022-10-29T19:10:21.872Z,3.83
2022-10-29T19:13:09.643Z,3.97
2022-10-29T19:16:02.117Z,4.33
2022-10-29T19:18:49.993Z,4.17
2022-10-29T19:21:38.197Z,6.57
2022-10-29T19:24:24.970Z,7.03
2022-10-29T19:27:13.111Z,6.93
2022-10-29T19:30:00.093Z,4.80
2022-10-29T19:32:47.380Z,4.37
2022-10-29T19:35:34.167Z,3.90
2022-10-29T19:38:21.012Z,4.03
2022-10-29T19:41:07.799Z,4.73
2022-10-29T19:44:00.095Z,4.93
2022-10-29T19:46:47.069Z,3.20
2022-10-29T19:49:34.183Z,3.40
2022-10-29T19:52:21.450Z,3.40
2022-10-29T19:55:09.621Z,3.30
2022-10-29T19:57:56.495Z,2.70
2022-10-29T20:00:44.642Z,2.43
2022-10-29T20:03:31.503Z,3.33
2022-10-29T20:06:18.774Z,3.10
2022-10-29T20:09:05.781Z,3.40
2022-10-29T20:11:52.792Z,2.87
2022-10-29T20:14:39.697Z,2.80
2022-10-29T20:17:31.320Z,3.40
2022-10-29T20:20:18.172Z,2.60
2022-10-29T20:23:04.863Z,2.90
2022-10-29T20:25:51.968Z,2.83
2022-10-29T20:28:39.412Z,3.20
2022-10-29T20:31:30.520Z,3.00
2022-10-29T20:34:19.863Z,2.60
2022-10-29T20:37:06.903Z,2.60
2022-10-29T20:39:53.722Z,2.60
2022-10-29T20:42:40.576Z,2.73
2022-10-29T20:45:27.357Z,3.00
2022-10-29T20:48:14.088Z,2.53
2022-10-29T20:51:02.231Z,2.40
2022-10-29T20:53:48.928Z,2.53
2022-10-29T20:56:36.147Z,2.90
2022-10-29T20:59:22.864Z,3.67
2022-10-29T21:02:12.077Z,2.67
2022-10-29T21:04:59.085Z,3.27
2022-10-29T21:07:47.533Z,2.30
2022-10-29T21:10:34.308Z,2.83
2022-10-29T21:13:21.192Z,2.67
2022-10-29T21:16:11.090Z,2.63
2022-10-29T21:18:59.512Z,2.90
2022-10-29T21:21:46.315Z,2.70
2022-10-29T21:24:35.558Z,2.63
2022-10-29T21:27:22.776Z,2.43
2022-10-29T21:30:11.133Z,2.80
2022-10-29T21:32:58.068Z,2.83
2022-10-29T21:35:50.052Z,2.90
2022-10-29T21:38:37.295Z,2.83
2022-10-29T21:41:25.439Z,3.13
2022-10-29T21:44:12.518Z,2.50
2022-10-29T21:46:59.366Z,2.47
2022-10-29T21:49:51.775Z,2.17
2022-10-29T21:52:39.170Z,2.90
2022-10-29T21:55:26.076Z,3.93
2022-10-29T21:58:14.040Z,3.07
2022-10-29T22:01:05.960Z,2.50
2022-10-29T22:03:52.880Z,2.13
2022-10-29T22:06:39.981Z,3.27
2022-10-29T22:09:27.011Z,2.63
2022-10-29T22:12:13.716Z,2.17
2022-10-29T22:15:02.188Z,2.20
2022-10-29T22:17:49.223Z,2.53
2022-10-29T22:20:35.800Z,2.20
2022-10-29T22:23:22.544Z,2.77
2022-10-29T22:26:09.757Z,2.73
2022-10-29T22:28:56.963Z,2.77
2022-10-29T22:31:45.536Z,2.43
2022-10-29T22:34:32.439Z,2.57
2022-10-29T22:37:19.263Z,2.57
2022-10-29T22:40:06.916Z,2.37
2022-10-29T22:42:53.728Z,3.00
2022-10-29T22:45:41.018Z,2.30
2022-10-29T22:48:29.066Z,2.90
2022-10-29T22:51:18.877Z,2.53
2022-10-29T22:54:06.634Z,2.37
2022-10-29T22:56:53.553Z,2.27
2022-10-29T22:59:40.374Z,2.37
2022-10-29T23:02:27.052Z,2.43
2022-10-29T23:05:15.433Z,2.07
2022-10-29T23:08:02.541Z,2.20
2022-10-29T23:10:49.327Z,2.30
2022-10-29T23:13:37.173Z,2.20
2022-10-29T23:16:24.312Z,2.37
2022-10-29T23:19:12.331Z,2.40
2022-10-29T23:22:00.896Z,1.67
2022-10-29T23:24:47.948Z,2.20
2022-10-29T23:27:34.584Z,2.50
2022-10-29T23:30:21.513Z,2.40
2022-10-29T23:33:08.417Z,2.40
2022-10-29T23:35:55.418Z,3.13
2022-10-29T23:38:44.008Z,2.13
2022-10-29T23:41:31.720Z,2.23
2022-10-29T23:44:18.872Z,3.27
2022-10-29T23:47:05.638Z,2.30
2022-10-29T23:49:52.906Z,2.03
2022-10-29T23:52:39.985Z,2.30
2022-10-29T23:55:28.328Z,2.30
2022-10-29T23:58:15.690Z,2.23
